Time;durP1;ratioP1;P1;durP2;ratioP2;P2;SDS_P1;SDS_P2;PMS_P1;PMS_P2;Temp;Humidity;BMP_temperature;BMP_pressure;BME280_temperature;BME280_humidity;BME280_pressure;Samples;Min_cycle;Max_cycle;Signal;HPM_P1;HPM_P2
2022/04/18 00:01:17;;;;;;;12.40;7.80;;;;;;;11.85;48.89;101938.03;5012689;28;20050;-68
2022/04/18 00:03:43;;;;;;;12.40;7.97;;;;;;;11.87;49.70;101932.78;5012910;28;20030;-67
2022/04/18 00:06:08;;;;;;;12.63;7.95;;;;;;;11.80;51.55;101932.63;5012686;28;20021;-68
2022/04/18 00:08:33;;;;;;;10.75;7.97;;;;;;;11.77;49.78;101934.28;5012773;28;20097;-67
2022/04/18 00:10:59;;;;;;;11.98;7.97;;;;;;;11.77;50.79;101924.63;5013078;28;20021;-68
2022/04/18 00:13:24;;;;;;;15.35;8.38;;;;;;;11.76;50.10;101928.13;5012826;28;20434;-67
2022/04/18 00:15:49;;;;;;;12.88;8.30;;;;;;;11.86;50.09;101928.38;5011956;28;20505;-68
2022/04/18 00:18:15;;;;;;;9.73;7.53;;;;;;;11.75;50.15;101921.03;5011895;28;20920;-69
2022/04/18 00:20:40;;;;;;;11.90;8.10;;;;;;;11.75;50.68;101926.31;4977770;28;20027;-68
2022/04/18 00:23:05;;;;;;;10.32;7.63;;;;;;;11.50;53.02;101929.97;5012597;28;20068;-67
2022/04/18 00:25:31;;;;;;;11.00;7.93;;;;;;;11.35;54.66;101925.13;5012235;28;20108;-68
2022/04/18 00:27:56;;;;;;;11.90;8.20;;;;;;;11.32;54.05;101925.03;5013066;28;20079;-68
2022/04/18 00:30:21;;;;;;;12.23;8.38;;;;;;;11.37;52.88;101922.56;5012341;28;20108;-69
2022/04/18 00:32:46;;;;;;;13.27;8.35;;;;;;;11.31;52.86;101915.34;5012457;28;20018;-68
2022/04/18 00:35:12;;;;;;;15.07;8.40;;;;;;;11.27;52.58;101921.34;5012850;28;20437;-68
2022/04/18 00:37:40;;;;;;;15.20;9.07;;;;;;;11.22;52.94;101917.72;5011833;28;20026;-68
2022/04/18 00:40:07;;;;;;;12.40;9.23;;;;;;;11.12;53.16;101921.75;5011981;28;20029;-68
2022/04/18 00:42:33;;;;;;;10.88;7.88;;;;;;;11.05;53.79;101925.94;5011464;28;20033;-67
2022/04/18 00:44:59;;;;;;;12.95;8.75;;;;;;;10.99;54.30;101917.88;5012322;28;20057;-68
2022/04/18 00:47:24;;;;;;;16.02;8.52;;;;;;;10.91;54.45;101917.59;5012122;28;20030;-68
2022/04/18 00:49:50;;;;;;;17.95;8.63;;;;;;;10.86;56.23;101923.56;5012688;28;20050;-68
2022/04/18 00:52:16;;;;;;;13.30;9.05;;;;;;;10.81;56.36;101920.78;5012360;28;20033;-68
2022/04/18 00:54:42;;;;;;;13.05;8.85;;;;;;;10.76;56.66;101923.25;5013746;28;20037;-67
2022/04/18 00:57:09;;;;;;;19.17;9.73;;;;;;;10.77;56.68;101921.50;5015942;28;20080;-67
2022/04/18 00:59:34;;;;;;;15.65;9.27;;;;;;;10.69;56.68;101913.38;5016067;28;20500;-67
2022/04/18 01:01:59;;;;;;;12.13;9.27;;;;;;;10.68;56.70;101916.84;5016433;28;20034;-68
2022/04/18 01:04:25;;;;;;;13.02;9.13;;;;;;;10.59;57.78;101920.09;5015545;28;20140;-68
2022/04/18 01:06:50;;;;;;;14.32;9.10;;;;;;;10.56;57.52;101913.81;5015841;28;20071;-68
2022/04/18 01:09:15;;;;;;;12.13;8.82;;;;;;;10.46;59.34;101918.75;5016179;28;20382;-67
2022/04/18 01:11:41;;;;;;;12.77;8.68;;;;;;;10.54;58.65;101915.47;5015909;28;20498;-68
2022/04/18 01:14:06;;;;;;;15.13;9.18;;;;;;;10.48;59.32;101915.28;4997626;28;20381;-67
2022/04/18 01:16:32;;;;;;;15.55;9.63;;;;;;;10.36;59.03;101911.38;5015376;28;20084;-67
2022/04/18 01:18:57;;;;;;;16.58;9.50;;;;;;;10.34;58.58;101913.03;5008833;28;20108;-67
2022/04/18 01:21:23;;;;;;;11.43;8.90;;;;;;;10.26;59.70;101906.63;5015468;28;20022;-67
2022/04/18 01:23:48;;;;;;;17.00;9.40;;;;;;;10.21;59.66;101906.44;4997503;28;20141;-68
2022/04/18 01:28:59;;;;;;;15.32;10.13;;;;;;;10.30;60.67;101914.66;5015315;28;20397;-68
2022/04/18 01:31:26;;;;;;;15.85;9.27;;;;;;;10.17;59.58;101908.91;5015113;28;20144;-67
2022/04/18 01:33:52;;;;;;;12.88;8.93;;;;;;;10.20;60.86;101914.28;5015654;28;20029;-67
2022/04/18 01:36:17;;;;;;;13.77;8.93;;;;;;;10.25;61.31;101910.97;4997795;28;20052;-67
2022/04/18 01:38:42;;;;;;;13.70;9.40;;;;;;;10.11;60.90;101914.88;5014603;28;20022;-69
2022/04/18 01:41:08;;;;;;;14.82;8.82;;;;;;;10.17;60.34;101906.28;5015224;28;20034;-68
2022/04/18 01:43:33;;;;;;;14.65;9.25;;;;;;;10.12;59.25;101906.16;5014942;28;20049;-67
2022/04/18 01:45:58;;;;;;;14.73;9.68;;;;;;;10.04;59.69;101902.34;5015066;28;20523;-68
2022/04/18 01:48:24;;;;;;;14.15;9.30;;;;;;;9.99;59.52;101904.78;5015565;28;20044;-68
2022/04/18 01:50:49;;;;;;;12.10;9.07;;;;;;;9.96;60.39;101907.31;5015980;28;20061;-67
2022/04/18 01:53:14;;;;;;;11.65;9.20;;;;;;;9.90;60.49;101910.63;5015223;28;20037;-67
2022/04/18 01:55:40;;;;;;;13.95;8.93;;;;;;;9.81;61.25;101909.38;4996657;28;20405;-68
2022/04/18 01:58:05;;;;;;;14.77;9.27;;;;;;;9.73;61.23;101907.34;5015461;28;20045;-68
2022/04/18 02:00:34;;;;;;;12.68;8.77;;;;;;;9.71;61.48;101909.06;5014894;28;20586;-67
2022/04/18 02:03:00;;;;;;;12.82;9.25;;;;;;;9.64;62.09;101901.75;5014703;28;20393;-68
2022/04/18 02:05:25;;;;;;;13.48;9.32;;;;;;;9.59;62.28;101896.34;5014610;28;20052;-68
2022/04/18 02:07:51;;;;;;;13.15;9.50;;;;;;;9.61;62.81;101899.03;4997234;28;20034;-68
2022/04/18 02:10:16;;;;;;;14.63;9.25;;;;;;;9.57;62.50;101889.22;5013932;28;20041;-68
2022/04/18 02:12:42;;;;;;;12.88;8.88;;;;;;;9.57;61.81;101884.88;5015011;28;20065;-68
2022/04/18 02:15:08;;;;;;;13.13;8.95;;;;;;;9.51;62.61;101889.91;5015254;28;20083;-67
2022/04/18 02:17:33;;;;;;;15.40;9.05;;;;;;;9.48;62.50;101886.25;5013686;28;20494;-67
2022/04/18 02:19:59;;;;;;;12.48;8.63;;;;;;;9.40;63.11;101902.63;5014684;28;20021;-68
2022/04/18 02:22:24;;;;;;;13.45;8.93;;;;;;;9.32;63.34;101904.06;5014663;28;20136;-68
2022/04/18 02:24:50;;;;;;;12.30;9.43;;;;;;;9.30;63.34;101895.22;5014663;28;20037;-68
2022/04/18 02:27:16;;;;;;;12.23;9.23;;;;;;;9.29;63.87;101888.16;5013915;28;20022;-68
2022/04/18 02:29:42;;;;;;;13.50;8.90;;;;;;;9.25;63.56;101892.44;5014720;28;20100;-67
2022/04/18 02:34:51;;;;;;;16.40;8.38;;;;;;;9.19;63.55;101883.41;5014903;28;20084;-68
2022/04/18 02:37:17;;;;;;;14.52;8.20;;;;;;;9.15;63.27;101885.00;5014390;28;20412;-67
2022/04/18 02:39:42;;;;;;;14.27;8.85;;;;;;;9.14;64.35;101890.22;5014889;28;20034;-68
2022/04/18 02:42:08;;;;;;;10.27;8.23;;;;;;;9.13;64.91;101896.28;5014138;28;20026;-68
2022/04/18 02:44:33;;;;;;;11.30;8.20;;;;;;;9.10;64.35;101895.34;5014103;28;20509;-68
2022/04/18 02:46:59;;;;;;;11.23;8.50;;;;;;;9.03;65.18;101885.41;5014780;28;20363;-68
2022/04/18 02:49:24;;;;;;;10.88;7.95;;;;;;;9.09;65.21;101880.41;5013303;28;20482;-68
2022/04/18 02:51:49;;;;;;;12.13;7.57;;;;;;;9.08;64.37;101876.00;5014959;28;20025;-68
2022/04/18 02:54:15;;;;;;;12.63;7.82;;;;;;;9.06;64.97;101884.66;5014568;28;20022;-68
2022/04/18 02:56:40;;;;;;;12.93;7.72;;;;;;;9.04;65.03;101879.34;5014026;28;20378;-68
2022/04/18 02:59:05;;;;;;;12.80;7.90;;;;;;;9.10;64.97;101876.97;5014681;28;20049;-67
2022/04/18 03:01:31;;;;;;;13.05;7.95;;;;;;;9.06;65.28;101882.94;5014072;28;20018;-68
2022/04/18 03:03:56;;;;;;;12.40;8.32;;;;;;;9.04;64.44;101874.09;5011868;28;20029;-67
2022/04/18 03:06:22;;;;;;;13.30;7.28;;;;;;;9.01;64.77;101879.22;5014517;28;20036;-68
2022/04/18 03:08:47;;;;;;;10.80;7.63;;;;;;;8.95;65.70;101878.97;5013145;28;20664;-67
2022/04/18 03:11:13;;;;;;;10.98;7.05;;;;;;;8.85;64.78;101875.09;5013774;28;20026;-68
2022/04/18 03:13:44;;;;;;;10.82;7.40;;;;;;;8.84;65.95;101867.16;5013908;28;20022;-67
2022/04/18 03:16:11;;;;;;;9.95;6.93;;;;;;;8.86;65.18;101876.00;5013490;28;20033;-68
2022/04/18 03:18:37;;;;;;;10.70;6.78;;;;;;;8.86;66.57;101879.50;5012510;28;20105;-68
2022/04/18 03:21:03;;;;;;;11.02;7.40;;;;;;;8.82;65.82;101869.72;5014176;28;20112;-68
2022/04/18 03:23:29;;;;;;;8.13;6.38;;;;;;;8.87;67.30;101867.28;5013467;28;20815;-67
2022/04/18 03:25:55;;;;;;;11.32;6.72;;;;;;;8.84;66.22;101872.41;5013331;28;20048;-68
2022/04/18 03:28:20;;;;;;;9.98;6.72;;;;;;;8.80;65.61;101865.25;5013629;28;20053;-68
2022/04/18 03:30:46;;;;;;;9.18;7.10;;;;;;;8.80;65.74;101865.25;5013626;28;20018;-67
2022/04/18 03:33:11;;;;;;;9.23;6.63;;;;;;;8.81;66.01;101862.69;5013432;28;20040;-68
2022/04/18 03:35:37;;;;;;;9.15;6.57;;;;;;;8.80;67.11;101857.38;5012877;28;20462;-68
2022/04/18 03:40:46;;;;;;;9.38;6.43;;;;;;;8.71;65.95;101855.28;5002049;28;20040;-68
2022/04/18 03:43:11;;;;;;;9.02;5.85;;;;;;;8.60;65.89;101850.47;5013655;28;20030;-68
2022/04/18 03:45:36;;;;;;;9.07;6.53;;;;;;;8.58;65.76;101848.63;5013363;28;20029;-68
2022/04/18 03:48:02;;;;;;;8.60;6.43;;;;;;;8.58;66.04;101851.25;5013411;28;20068;-68
2022/04/18 03:50:27;;;;;;;7.47;5.65;;;;;;;8.58;65.58;101851.25;5012906;28;20033;-67
2022/04/18 03:52:52;;;;;;;7.00;5.85;;;;;;;8.55;65.75;101843.25;5013444;28;20129;-67
2022/04/18 03:55:18;;;;;;;9.18;5.45;;;;;;;8.55;65.92;101843.25;5012837;28;20032;-67
2022/04/18 03:57:43;;;;;;;6.90;5.57;;;;;;;8.52;65.54;101843.13;5012570;28;20371;-68
2022/04/18 04:00:10;;;;;;;16.15;5.70;;;;;;;8.48;65.56;101849.97;5013356;28;20033;-68
2022/04/18 04:02:36;;;;;;;8.45;5.40;;;;;;;8.44;65.60;101841.03;5012957;28;20068;-68
2022/04/18 04:05:02;;;;;;;8.18;5.68;;;;;;;8.46;66.35;101856.00;5011912;28;20038;-68
2022/04/18 04:07:27;;;;;;;7.32;5.03;;;;;;;8.42;66.10;101850.59;5013527;28;20546;-68
2022/04/18 04:09:53;;;;;;;7.32;6.05;;;;;;;8.39;67.00;101853.06;4994476;28;20025;-68
2022/04/18 04:12:26;;;;;;;8.75;5.50;;;;;;;8.35;66.85;101859.03;5013208;28;20823;-67
2022/04/18 04:14:53;;;;;;;6.68;5.10;;;;;;;8.32;67.21;101855.41;5012853;28;20030;-67
2022/04/18 04:17:18;;;;;;;8.18;5.32;;;;;;;8.28;67.21;101860.47;5012896;28;20025;-67
2022/04/18 04:19:44;;;;;;;6.88;5.43;;;;;;;8.21;67.97;101868.94;5012995;28;20036;-68
2022/04/18 04:22:10;;;;;;;7.28;5.78;;;;;;;8.16;68.78;101866.94;5010454;28;20627;-68
2022/04/18 04:24:35;;;;;;;6.47;5.43;;;;;;;8.06;68.84;101876.16;5012275;28;20025;-67
2022/04/18 04:27:00;;;;;;;8.18;5.75;;;;;;;7.97;70.26;101874.00;5011979;28;20470;-68
2022/04/18 04:29:26;;;;;;;10.50;5.90;;;;;;;7.84;70.55;101877.81;5011569;28;20536;-67
2022/04/18 04:31:51;;;;;;;9.45;6.53;;;;;;;7.91;71.90;101874.63;5012900;28;20018;-67
2022/04/18 04:34:16;;;;;;;9.93;5.65;;;;;;;7.94;71.16;101873.88;5012522;28;20060;-69
2022/04/18 04:36:41;;;;;;;7.88;5.68;;;;;;;7.88;70.82;101873.59;5010611;28;20025;-67
2022/04/18 04:39:07;;;;;;;10.70;5.20;;;;;;;7.97;70.96;101874.00;5012693;28;20029;-68
2022/04/18 04:41:33;;;;;;;7.43;5.03;;;;;;;8.02;71.21;101880.34;5012427;28;20033;-68
2022/04/18 04:43:58;;;;;;;6.55;5.45;;;;;;;8.07;72.08;101863.09;4994745;28;20030;-67
2022/04/18 04:46:23;;;;;;;8.20;5.13;;;;;;;8.08;71.12;101859.66;5012612;28;20109;-68
2022/04/18 04:48:48;;;;;;;7.10;5.72;;;;;;;8.09;71.14;101856.19;5012677;28;20026;-68
2022/04/18 04:51:14;;;;;;;7.72;5.53;;;;;;;8.06;70.37;101858.69;5011676;28;20034;-68
2022/04/18 04:53:39;;;;;;;6.50;4.97;;;;;;;8.10;69.81;101859.72;5011872;28;20470;-68
2022/04/18 04:56:04;;;;;;;5.28;4.60;;;;;;;8.09;71.30;101858.81;5011457;28;20034;-68
2022/04/18 04:58:30;;;;;;;6.18;4.95;;;;;;;8.07;71.01;101854.31;5012899;28;20058;-67
2022/04/18 05:00:56;;;;;;;6.82;4.95;;;;;;;8.10;70.37;101850.13;5012495;28;20068;-68
2022/04/18 05:03:21;;;;;;;7.03;4.28;;;;;;;8.12;69.39;101846.69;5011526;28;20113;-68
2022/04/18 05:05:47;;;;;;;7.15;4.63;;;;;;;8.13;70.50;101848.47;5012175;28;20104;-67
2022/04/18 05:08:12;;;;;;;5.68;4.50;;;;;;;8.19;69.83;101838.22;5011654;28;20117;-67
2022/04/18 05:10:38;;;;;;;6.35;4.57;;;;;;;8.25;69.85;101843.75;5012581;28;20141;-68
2022/04/18 05:13:04;;;;;;;8.70;4.90;;;;;;;8.29;69.52;101848.28;5011638;28;20505;-67
2022/04/18 05:15:31;;;;;;;6.85;4.78;;;;;;;8.34;69.62;101849.38;5011654;28;20034;-68
2022/04/18 05:17:56;;;;;;;6.03;5.13;;;;;;;8.43;70.84;101846.22;5011840;28;20026;-68
2022/04/18 05:20:21;;;;;;;6.18;4.20;;;;;;;8.53;71.05;101840.59;5012399;28;20084;-67
2022/04/18 05:22:46;;;;;;;6.90;4.90;;;;;;;8.54;69.31;101841.47;5011838;28;20104;-68
2022/04/18 05:25:12;;;;;;;6.50;4.93;;;;;;;8.51;68.54;101842.22;5012300;28;20049;-68
2022/04/18 05:27:37;;;;;;;6.05;4.28;;;;;;;8.50;69.06;101855.28;5011747;28;20037;-68
2022/04/18 05:30:05;;;;;;;5.68;4.50;;;;;;;8.48;70.85;101860.47;5011691;28;20125;-68
2022/04/18 05:32:30;;;;;;;5.97;4.65;;;;;;;8.53;71.03;101861.56;5012326;28;20088;-68
2022/04/18 05:34:55;;;;;;;7.93;4.40;;;;;;;8.55;69.70;101854.63;4994776;28;20422;-68
2022/04/18 05:37:20;;;;;;;8.10;4.60;;;;;;;8.60;69.03;101860.09;5011633;28;20034;-67
2022/04/18 05:39:46;;;;;;;5.47;4.38;;;;;;;8.62;69.22;101857.53;5012124;28;20026;-68
2022/04/18 05:42:11;;;;;;;5.72;4.50;;;;;;;8.64;68.65;101851.50;5015344;28;20501;-68
2022/04/18 05:44:36;;;;;;;7.93;4.47;;;;;;;8.71;69.13;101861.41;5015767;28;20072;-68
2022/04/18 05:47:02;;;;;;;7.45;4.38;;;;;;;8.75;68.55;101847.59;5015743;28;20486;-68
2022/04/18 05:49:27;;;;;;;9.32;4.15;;;;;;;8.86;68.28;101847.13;5014578;28;20049;-68
2022/04/18 05:51:53;;;;;;;7.13;4.28;;;;;;;8.93;67.68;101851.78;4997430;28;20105;-68
2022/04/18 05:54:18;;;;;;;6.70;4.05;;;;;;;9.02;67.89;101848.59;5014673;28;20029;-68
2022/04/18 05:56:43;;;;;;;4.68;4.22;;;;;;;9.10;66.95;101855.97;5015239;28;20030;-68
2022/04/18 05:59:09;;;;;;;6.35;3.72;;;;;;;9.21;67.68;101858.09;5014358;28;20080;-67
2022/04/18 06:01:35;;;;;;;7.20;4.15;;;;;;;9.27;65.47;101853.97;5014799;28;20100;-67
2022/04/18 06:04:01;;;;;;;5.18;3.60;;;;;;;9.36;65.01;101847.28;5014775;28;20060;-66
2022/04/18 06:06:26;;;;;;;5.38;4.55;;;;;;;9.47;64.83;101845.06;5015819;28;20072;-67
2022/04/18 06:08:51;;;;;;;7.30;4.22;;;;;;;9.56;64.95;101850.66;5015106;28;20484;-67
2022/04/18 06:11:16;;;;;;;5.70;3.88;;;;;;;9.65;64.85;101855.38;5014836;28;20034;-67
2022/04/18 06:13:42;;;;;;;6.22;4.25;;;;;;;9.71;64.22;101855.56;5014628;28;20026;-68
2022/04/18 06:16:08;;;;;;;4.20;3.47;;;;;;;9.81;63.55;101859.41;5014933;28;20046;-67
2022/04/18 06:18:34;;;;;;;6.15;4.18;;;;;;;9.88;63.79;101858.81;5015159;28;20112;-67
2022/04/18 06:20:59;;;;;;;4.15;3.70;;;;;;;9.92;64.14;101852.84;5015284;28;20049;-67
2022/04/18 06:23:25;;;;;;;8.20;3.92;;;;;;;9.96;63.54;101858.25;4997297;28;20049;-67
2022/04/18 06:25:50;;;;;;;5.40;3.75;;;;;;;10.00;63.26;101856.63;5012445;28;20041;-67
2022/04/18 06:28:15;;;;;;;7.60;4.10;;;;;;;10.03;63.61;101858.47;5015137;28;20065;-66
2022/04/18 06:30:41;;;;;;;4.40;3.90;;;;;;;10.05;63.37;101852.44;5014380;28;20473;-67
2022/04/18 06:33:14;;;;;;;6.22;4.40;;;;;;;10.10;63.21;101855.22;5014134;28;20021;-66
2022/04/18 06:35:41;;;;;;;6.05;4.38;;;;;;;10.13;62.33;101858.84;4997072;28;20037;-67
2022/04/18 06:38:07;;;;;;;5.70;4.57;;;;;;;10.13;63.17;101848.34;5014527;28;20525;-66
2022/04/18 06:40:32;;;;;;;5.20;4.10;;;;;;;10.20;63.51;101857.34;5011401;28;20067;-67
2022/04/18 06:42:57;;;;;;;8.07;4.07;;;;;;;10.21;63.29;101861.72;5013387;28;20063;-67
2022/04/18 06:45:24;;;;;;;9.10;4.35;;;;;;;10.29;63.50;101867.25;5013134;28;20385;-68
2022/04/18 06:47:49;;;;;;;5.47;4.55;;;;;;;10.35;63.20;101870.16;5013354;28;20026;-68
2022/04/18 06:50:14;;;;;;;8.40;4.38;;;;;;;10.38;63.19;101867.59;5014625;28;20026;-68
2022/04/18 06:52:44;;;;;;;4.45;4.05;;;;;;;10.43;63.53;101871.28;4995745;28;20144;-68
2022/04/18 06:55:09;;;;;;;4.57;4.18;;;;;;;10.51;63.43;101865.38;5013904;28;20386;-68
2022/04/18 06:57:35;;;;;;;6.30;3.90;;;;;;;10.53;62.67;101872.50;5012593;28;20022;-68
2022/04/18 07:00:03;;;;;;;8.18;4.03;;;;;;;10.60;63.31;101873.59;5013536;28;20045;-67
2022/04/18 07:02:28;;;;;;;4.70;4.10;;;;;;;10.66;63.79;101883.41;5013173;28;20030;-68
2022/04/18 07:04:53;;;;;;;4.72;3.97;;;;;;;10.76;62.94;101875.88;5013369;28;20030;-69
2022/04/18 07:07:19;;;;;;;8.45;3.75;;;;;;;10.85;62.50;101872.66;5013761;28;20033;-68
2022/04/18 07:09:44;;;;;;;5.88;3.95;;;;;;;10.95;63.05;101874.72;5012071;28;20034;-68
2022/04/18 07:12:09;;;;;;;5.95;4.00;;;;;;;11.08;61.88;101877.75;5014784;28;20108;-69
2022/04/18 07:14:36;;;;;;;5.72;4.32;;;;;;;11.15;61.79;101874.47;5016782;28;20129;-68
2022/04/18 07:17:01;;;;;;;4.85;4.00;;;;;;;11.23;61.44;101872.03;5016627;28;20018;-69
2022/04/18 07:19:28;;;;;;;7.88;4.40;;;;;;;11.32;61.46;101876.72;4994076;28;20068;-68
2022/04/18 07:21:54;;;;;;;4.45;4.05;;;;;;;11.43;61.92;101880.56;5014730;28;20109;-68
2022/04/18 07:24:19;;;;;;;5.13;4.43;;;;;;;11.52;60.49;101875.56;5013372;28;20125;-68
2022/04/18 07:26:45;;;;;;;4.85;4.10;;;;;;;11.60;61.43;101878.44;5011764;28;20026;-68
2022/04/18 07:29:10;;;;;;;4.28;3.83;;;;;;;11.72;61.00;101884.06;5012815;28;20041;-68
2022/04/18 07:31:35;;;;;;;8.07;3.67;;;;;;;11.85;59.91;101879.13;4997697;28;20030;-69
2022/04/18 07:34:00;;;;;;;4.30;3.50;;;;;;;11.94;59.61;101879.38;5012212;28;20030;-68
2022/04/18 07:36:26;;;;;;;4.70;3.88;;;;;;;12.05;59.37;101880.59;5012659;28;20140;-69
2022/04/18 07:38:51;;;;;;;6.43;4.40;;;;;;;12.16;58.58;101874.72;5009617;28;20121;-69
2022/04/18 07:41:21;;;;;;;6.32;3.90;;;;;;;12.28;58.22;101875.03;5006265;28;20504;-69
2022/04/18 07:43:49;;;;;;;8.73;4.18;;;;;;;12.43;56.73;101879.81;5011242;28;20451;-68
2022/04/18 07:46:16;;;;;;;6.53;4.20;;;;;;;12.52;55.68;101874.78;5013279;28;20466;-68
2022/04/18 07:48:42;;;;;;;7.72;3.90;;;;;;;12.68;55.93;101876.03;5012817;28;20038;-68
2022/04/18 07:53:51;;;;;;;3.83;3.20;;;;;;;12.93;55.69;101879.28;5008938;28;20092;-69
2022/04/18 07:56:17;;;;;;;4.32;3.50;;;;;;;13.02;54.32;101865.38;5000042;28;20034;-68
2022/04/18 07:58:42;;;;;;;5.30;3.85;;;;;;;13.08;53.62;101868.19;5013071;28;20029;-68
2022/04/18 08:01:08;;;;;;;3.95;3.55;;;;;;;13.24;53.71;101869.41;5013289;28;20382;-69
2022/04/18 08:03:34;;;;;;;6.57;3.40;;;;;;;13.29;52.94;101860.72;4993455;28;20061;-68
2022/04/18 08:06:00;;;;;;;5.38;3.00;;;;;;;13.44;51.97;101865.50;5011638;28;20083;-70
2022/04/18 08:08:25;;;;;;;5.35;3.05;;;;;;;13.60;49.31;101857.88;5012471;28;20030;-69
2022/04/18 08:10:51;;;;;;;4.60;2.60;;;;;;;13.78;46.60;101850.31;5009878;28;20026;-69
2022/04/18 08:13:16;;;;;;;3.42;2.08;;;;;;;13.94;42.65;101846.16;4994281;28;20036;-69
2022/04/18 08:15:42;;;;;;;4.07;2.40;;;;;;;14.10;42.27;101847.34;5013465;28;20100;-68
2022/04/18 08:18:07;;;;;;;5.10;2.15;;;;;;;14.33;38.13;101845.09;5010529;28;20095;-68
2022/04/18 08:20:33;;;;;;;3.05;1.92;;;;;;;14.47;39.86;101848.00;5012917;28;20481;-69
2022/04/18 08:22:58;;;;;;;2.65;2.20;;;;;;;14.72;38.87;101840.50;5013109;28;20155;-68
2022/04/18 08:25:24;;;;;;;4.50;2.17;;;;;;;14.87;37.39;101847.78;5012254;28;20029;-68
2022/04/18 08:27:49;;;;;;;4.60;2.00;;;;;;;15.02;37.85;101847.09;5011216;28;20029;-68
2022/04/18 08:30:15;;;;;;;3.67;2.00;;;;;;;15.16;36.09;101837.56;5011380;28;20030;-67
2022/04/18 08:32:41;;;;;;;4.70;2.20;;;;;;;15.31;37.75;101838.66;5012504;28;20025;-67
2022/04/18 08:35:07;;;;;;;3.15;2.03;;;;;;;15.43;37.37;101844.09;5013036;28;20065;-67
2022/04/18 08:37:34;;;;;;;2.40;2.20;;;;;;;15.56;35.26;101831.00;5010698;28;20030;-67
2022/04/18 08:40:01;;;;;;;4.13;2.38;;;;;;;15.72;35.93;101838.28;5012249;28;20052;-65
2022/04/18 08:42:33;;;;;;;10.18;2.10;;;;;;;15.76;33.77;101836.53;5012992;28;20026;-67
2022/04/18 08:45:01;;;;;;;2.88;2.28;;;;;;;15.68;33.89;101829.38;5011056;28;20092;-66
2022/04/18 08:52:56;;;;;;;5.18;2.30;;;;;;;15.92;33.80;101829.66;5008978;28;20095;-67
2022/04/18 08:55:22;;;;;;;2.63;2.13;;;;;;;15.84;32.87;101819.88;5008529;28;20116;-66
2022/04/18 08:57:48;;;;;;;2.60;2.38;;;;;;;15.82;33.80;101826.91;5006745;28;20496;-67
2022/04/18 09:00:13;;;;;;;3.33;2.33;;;;;;;16.03;33.63;101830.66;5005743;28;20021;-67
2022/04/18 09:02:39;;;;;;;5.68;2.40;;;;;;;16.06;33.59;101830.72;5012262;28;20057;-67
2022/04/18 09:05:10;;;;;;;3.17;2.55;;;;;;;16.09;33.88;101830.72;5010697;28;20022;-66
2022/04/18 09:07:35;;;;;;;3.35;2.22;;;;;;;15.98;33.46;101832.41;5012368;28;20032;-66
2022/04/18 09:10:01;;;;;;;4.50;3.10;;;;;;;16.04;34.09;101832.44;5012022;28;20489;-67
2022/04/18 09:12:28;;;;;;;3.95;3.00;;;;;;;16.01;33.42;101832.41;5011478;28;20026;-67
2022/04/18 09:14:53;;;;;;;3.72;2.60;;;;;;;16.18;34.03;101825.50;5016521;28;20389;-67
2022/04/18 09:17:29;;;;;;;2.80;2.45;;;;;;;16.28;33.87;101825.59;5015926;28;20108;-67
2022/04/18 09:20:12;;;;;;;3.28;2.35;;;;;;;16.38;33.61;101816.81;5019088;28;20037;-67
2022/04/18 09:22:45;;;;;;;2.83;2.47;;;;;;;16.49;34.29;101817.81;5006104;28;20045;-67
2022/04/18 09:25:15;;;;;;;;;;;;;;;16.63;34.23;101824.97;4998805;28;20124;-67
2022/04/18 09:27:41;;;;;;;6.75;2.80;;;;;;;16.88;33.97;101818.03;5029458;28;19959;-67
2022/04/18 09:30:09;;;;;;;3.50;2.75;;;;;;;17.07;33.76;101815.53;4999772;28;20053;-67
2022/04/18 09:32:35;;;;;;;2.95;2.15;;;;;;;17.03;33.07;101812.84;5015588;28;20022;-68
2022/04/18 09:35:03;;;;;;;2.88;2.20;;;;;;;17.12;32.30;101812.00;5015054;28;20057;-68
2022/04/18 09:37:30;;;;;;;2.95;2.50;;;;;;;17.03;32.90;101810.19;5013295;28;20078;-69
2022/04/18 09:39:56;;;;;;;5.00;2.42;;;;;;;17.18;32.89;101812.03;5014543;28;20382;-67
2022/04/18 09:42:23;;;;;;;3.75;2.40;;;;;;;17.13;32.71;101804.91;5013757;28;20471;-70
2022/04/18 09:44:49;;;;;;;3.70;2.50;;;;;;;17.11;33.42;101810.22;5015179;28;20513;-70
2022/04/18 09:47:19;;;;;;;4.57;3.03;;;;;;;17.17;31.79;101812.03;5009046;28;20109;-69
2022/04/18 09:49:45;;;;;;;2.60;2.30;;;;;;;17.07;31.11;101813.75;5013434;28;20053;-70
2022/04/18 09:52:13;;;;;;;3.83;2.58;;;;;;;17.21;32.73;101816.47;5014164;28;20071;-71
2022/04/18 09:54:56;;;;;;;5.38;2.92;;;;;;;17.32;31.36;101808.53;4999399;28;20030;-71
2022/04/18 09:57:23;;;;;;;2.67;2.00;;;;;;;17.30;31.85;101802.34;5014677;28;20425;-74
2022/04/18 09:59:52;;;;;;;3.10;2.20;;;;;;;17.42;30.29;101798.84;5021304;28;20433;-71
2022/04/18 10:02:18;;;;;;;3.15;2.35;;;;;;;17.47;30.01;101797.97;5015284;28;20030;-70
2022/04/18 10:04:44;;;;;;;6.00;2.22;;;;;;;17.52;29.46;101801.50;5030778;28;20361;-71
2022/04/18 10:07:10;;;;;;;3.47;2.13;;;;;;;17.34;29.39;101793.50;5016316;28;20533;-71
2022/04/18 10:09:38;;;;;;;4.53;1.90;;;;;;;17.41;31.19;101794.41;5012774;28;20050;-72
2022/04/18 10:12:04;;;;;;;2.67;2.33;;;;;;;17.61;29.29;101794.47;5014069;28;20042;-71
2022/04/18 10:14:31;;;;;;;4.63;1.92;;;;;;;17.83;29.38;101792.72;5015697;28;20042;-71
2022/04/18 10:16:57;;;;;;;4.82;2.33;;;;;;;17.91;28.95;101796.28;5014191;28;20033;-71
2022/04/18 10:19:44;;;;;;;3.90;2.17;;;;;;;18.01;31.32;101794.56;4997684;28;20124;-69
2022/04/18 10:22:49;;;;;;;2.60;2.28;;;;;;;18.21;29.93;101786.56;5015222;28;20025;-71
2022/04/18 10:25:29;;;;;;;4.68;2.50;;;;;;;18.44;30.46;101789.22;5010745;28;20029;-70
2022/04/18 10:28:16;;;;;;;3.72;2.33;;;;;;;18.63;28.82;101794.53;5013677;28;20113;-71
2022/04/18 10:30:55;;;;;;;4.15;2.30;;;;;;;18.96;29.40;101790.03;5012696;28;20045;-70
2022/04/18 10:33:22;;;;;;;3.67;2.60;;;;;;;19.00;29.48;101794.47;5013228;28;20485;-70
2022/04/18 10:35:55;;;;;;;6.20;2.67;;;;;;;18.94;27.45;101786.50;5014763;28;20107;-71
2022/04/18 10:38:25;;;;;;;3.20;2.10;;;;;;;19.03;28.88;101790.03;5007239;28;20044;-71
2022/04/18 10:40:51;;;;;;;5.13;2.30;;;;;;;19.28;30.24;101792.59;5010455;28;20038;-73
2022/04/18 10:43:16;;;;;;;3.97;2.30;;;;;;;19.44;27.94;101798.75;4996026;28;20029;-71
2022/04/18 10:45:42;;;;;;;4.15;2.42;;;;;;;19.64;28.04;101792.41;4995680;28;20414;-70
2022/04/18 10:48:09;;;;;;;2.67;2.33;;;;;;;19.84;27.35;101787.84;5014310;28;20464;-71
2022/04/18 10:50:36;;;;;;;4.97;2.10;;;;;;;20.10;26.74;101786.75;5002570;28;20108;-73
2022/04/18 10:53:31;;;;;;;1.90;1.70;;;;;;;20.15;26.11;101784.94;5009132;28;20029;-73
2022/04/18 10:55:56;;;;;;;4.22;2.08;;;;;;;20.42;25.90;101780.28;5019290;28;20030;-73
2022/04/18 10:58:25;;;;;;;2.80;1.75;;;;;;;20.42;26.16;101780.28;5014581;28;20037;-72
2022/04/18 11:00:53;;;;;;;2.85;1.77;;;;;;;20.55;24.71;101784.59;5014139;28;20028;-71
2022/04/18 11:03:38;;;;;;;2.80;1.83;;;;;;;20.96;24.50;101770.81;5008674;28;20478;-73
2022/04/18 11:06:15;;;;;;;2.28;1.52;;;;;;;20.89;23.43;101778.91;5012604;28;20022;-72
2022/04/18 11:08:42;;;;;;;2.50;1.98;;;;;;;20.84;24.41;101770.06;5014889;28;20038;-72
2022/04/18 11:11:15;;;;;;;3.08;2.00;;;;;;;20.96;24.78;101769.03;5015906;28;20538;-72
2022/04/18 11:13:48;;;;;;;2.88;1.98;;;;;;;21.17;23.93;101773.22;5013205;28;20087;-72
2022/04/18 11:16:22;;;;;;;2.83;1.88;;;;;;;21.66;23.47;101765.44;5015006;28;20121;-72
2022/04/18 11:19:07;;;;;;;5.57;2.13;;;;;;;21.32;22.24;101760.53;5011837;28;20037;-71
2022/04/18 11:22:00;;;;;;;2.25;1.90;;;;;;;21.39;24.32;101778.28;5013506;28;20025;-71
2022/04/18 11:24:48;;;;;;;3.03;1.90;;;;;;;21.60;24.13;101777.16;5008900;28;20128;-71
2022/04/18 11:27:14;;;;;;;2.33;1.98;;;;;;;21.59;23.07;101764.66;5020421;28;20124;-71
2022/04/18 11:29:42;;;;;;;1.90;1.70;;;;;;;21.66;22.44;101774.41;5004469;28;20067;-72
2022/04/18 11:32:08;;;;;;;2.30;2.10;;;;;;;21.92;22.21;101764.16;5012639;28;20104;-73
2022/04/18 11:34:35;;;;;;;2.92;1.90;;;;;;;22.09;24.39;101764.78;4993329;28;20474;-73
2022/04/18 11:37:04;;;;;;;3.45;1.90;;;;;;;22.28;24.11;101759.09;5012243;28;20410;-72
2022/04/18 11:39:48;;;;;;;3.03;1.95;;;;;;;22.84;21.44;101757.19;5010958;28;20107;-73
2022/04/18 11:42:17;;;;;;;2.55;2.17;;;;;;;22.77;20.92;101751.97;4998310;28;20033;-71